Time;durP1;ratioP1;P1;durP2;ratioP2;P2;SDS_P1;SDS_P2;PMS_P1;PMS_P2;Temp;Humidity;BMP_temperature;BMP_pressure;BME280_temperature;BME280_humidity;BME280_pressure;Samples;Min_cycle;Max_cycle;Signal;HPM_P1;HPM_P2
2023/02/19 00:01:46;;;;;;;4.20;2.37;;;;;;;-145.69;100.00;52464.19;5134869;27;20201;-84
2023/02/19 00:04:15;;;;;;;3.20;1.90;;;;;;;-145.69;100.00;52438.44;5134197;27;20224;-84
2023/02/19 00:06:42;;;;;;;4.60;1.60;;;;;;;-145.69;100.00;52414.69;5134837;27;20220;-84
2023/02/19 00:09:10;;;;;;;2.37;1.70;;;;;;;-145.69;100.00;52432.50;5134524;27;20208;-84
2023/02/19 00:11:38;;;;;;;3.27;1.60;;;;;;;-145.69;100.00;52414.69;5134174;27;20709;-84
2023/02/19 00:14:05;;;;;;;3.37;1.63;;;;;;;-145.69;100.00;52440.44;5134406;27;20686;-84
2023/02/19 00:16:34;;;;;;;2.10;1.67;;;;;;;-145.69;100.00;52442.41;5134694;27;20193;-84
2023/02/19 00:19:02;;;;;;;4.37;2.20;;;;;;;-145.69;100.00;52444.38;5134128;27;20200;-84
2023/02/19 00:21:29;;;;;;;5.60;1.87;;;;;;;-145.69;100.00;52452.31;5134546;27;20224;-84
2023/02/19 00:23:58;;;;;;;2.30;1.80;;;;;;;-145.69;100.00;52432.50;5134427;27;20208;-84
2023/02/19 00:26:25;;;;;;;2.47;1.63;;;;;;;-145.69;100.00;52432.50;5134442;27;20348;-83
2023/02/19 00:28:54;;;;;;;2.67;1.60;;;;;;;-145.69;100.00;52420.63;5134258;27;20197;-84
2023/02/19 00:31:23;;;;;;;2.03;1.70;;;;;;;-145.69;100.00;52420.63;5134145;27;20233;-83
2023/02/19 00:33:51;;;;;;;3.70;2.27;;;;;;;-145.69;100.00;52418.63;5133826;27;20189;-84
2023/02/19 00:36:18;;;;;;;2.93;1.80;;;;;;;-145.69;100.00;52454.28;5133734;27;20189;-83
2023/02/19 00:38:45;;;;;;;3.73;2.00;;;;;;;-145.69;100.00;52416.66;5134081;27;20552;-83
2023/02/19 00:41:21;;;;;;;2.27;1.80;;;;;;;-145.69;100.00;52420.63;5134319;27;20193;-83
2023/02/19 00:43:50;;;;;;;2.67;1.90;;;;;;;-145.69;100.00;52472.13;5134381;27;20211;-84
2023/02/19 00:46:20;;;;;;;2.57;1.70;;;;;;;-145.69;100.00;52456.28;5134220;28;20203;-84
2023/02/19 00:48:47;;;;;;;3.87;2.00;;;;;;;-145.69;100.00;52424.59;5133651;27;20647;-84
2023/02/19 00:51:15;;;;;;;3.87;1.93;;;;;;;-145.69;100.00;52446.38;5133990;28;20200;-84
2023/02/19 00:53:42;;;;;;;2.57;1.80;;;;;;;-145.69;100.00;52446.38;5133991;28;20609;-84
2023/02/19 00:56:09;;;;;;;7.60;3.80;;;;;;;-145.69;100.00;52426.56;5134121;28;20196;-85
2023/02/19 00:58:36;;;;;;;3.50;2.00;;;;;;;-145.69;100.00;52424.59;5134425;28;20204;-84
2023/02/19 01:01:03;;;;;;;2.27;1.60;;;;;;;-145.69;100.00;52430.53;5131827;28;20205;-84
2023/02/19 01:03:30;;;;;;;7.67;2.40;;;;;;;-145.69;100.00;52428.53;5132593;27;20719;-84
2023/02/19 01:05:57;;;;;;;3.27;1.90;;;;;;;-145.69;100.00;52434.47;5134464;27;20196;-83
2023/02/19 01:08:24;;;;;;;4.03;2.07;;;;;;;-145.69;100.00;52414.69;5137466;27;20196;-84
2023/02/19 01:10:51;;;;;;;7.80;3.40;;;;;;;-145.69;100.00;52432.50;5137966;27;20254;-84
2023/02/19 01:13:17;;;;;;;3.30;1.70;;;;;;;-145.69;100.00;52416.66;5137699;27;20224;-84
2023/02/19 01:15:44;;;;;;;7.13;3.80;;;;;;;-145.69;100.00;52392.91;5137970;27;20211;-83
2023/02/19 01:18:11;;;;;;;4.90;2.20;;;;;;;-145.69;100.00;52430.53;5137937;27;20558;-83
2023/02/19 01:20:40;;;;;;;5.03;1.93;;;;;;;-145.69;100.00;52424.59;5137836;27;20201;-84
2023/02/19 01:23:07;;;;;;;6.20;2.77;;;;;;;-145.69;100.00;52416.66;5137816;27;20196;-84
2023/02/19 01:25:34;;;;;;;1.90;1.53;;;;;;;-145.69;100.00;52460.22;5137655;27;20652;-84
2023/02/19 01:28:01;;;;;;;3.20;1.70;;;;;;;-145.69;100.00;52444.38;5138098;27;20204;-84
2023/02/19 01:30:27;;;;;;;7.60;3.20;;;;;;;-145.69;100.00;52412.69;5137725;27;20253;-84
2023/02/19 01:32:54;;;;;;;7.67;4.17;;;;;;;-145.69;100.00;52436.47;5137488;27;20224;-84
2023/02/19 01:35:21;;;;;;;2.67;1.70;;;;;;;-145.69;100.00;52402.78;5137678;27;20197;-83
2023/02/19 01:37:49;;;;;;;4.03;2.43;;;;;;;-145.69;100.00;52422.59;5137663;27;20199;-83
2023/02/19 01:40:16;;;;;;;3.60;2.30;;;;;;;-145.69;100.00;52420.63;5137491;27;20200;-84
2023/02/19 01:42:42;;;;;;;3.03;1.60;;;;;;;-145.69;100.00;52442.41;5137314;27;20197;-84
2023/02/19 01:45:24;;;;;;;2.87;1.40;;;;;;;-145.69;100.00;52420.63;5136314;27;20555;-83
2023/02/19 01:48:12;;;;;;;2.73;1.53;;;;;;;-145.69;100.00;52406.75;5137326;27;20193;-84
2023/02/19 01:50:44;;;;;;;3.00;1.80;;;;;;;-145.69;100.00;52408.75;5137511;27;20651;-84
2023/02/19 01:53:15;;;;;;;2.53;1.30;;;;;;;-145.69;100.00;52428.53;5137110;27;20220;-84
2023/02/19 01:55:44;;;;;;;3.23;1.67;;;;;;;-145.69;100.00;52432.50;5137298;27;20567;-85
2023/02/19 01:58:11;;;;;;;2.17;1.50;;;;;;;-145.69;100.00;52448.34;5137705;27;20207;-85
2023/02/19 02:00:38;;;;;;;1.60;1.20;;;;;;;-145.69;100.00;52434.47;5136974;27;20203;-84
2023/02/19 02:03:05;;;;;;;2.27;1.37;;;;;;;-145.69;100.00;52464.19;5136750;27;20240;-83
2023/02/19 02:05:41;;;;;;;2.10;1.60;;;;;;;-145.69;100.00;52412.69;5137398;27;20201;-84
2023/02/19 02:10:54;;;;;;;1.93;1.57;;;;;;;-145.69;100.00;52410.72;5137255;27;20204;-83
2023/02/19 02:13:21;;;;;;;3.00;1.57;;;;;;;-145.69;100.00;52448.34;5138326;27;20226;-83
2023/02/19 02:15:53;;;;;;;2.97;1.43;;;;;;;-145.69;100.00;52440.44;5138055;27;20196;-84
2023/02/19 02:18:30;;;;;;;1.40;1.07;;;;;;;-145.69;100.00;52412.69;5137287;27;20231;-83
2023/02/19 02:21:10;;;;;;;2.90;1.40;;;;;;;-145.69;100.00;52426.56;5137991;27;20208;-83
2023/02/19 02:23:56;;;;;;;2.87;1.40;;;;;;;-145.69;100.00;52388.94;5136532;27;20651;-83
2023/02/19 02:26:41;;;;;;;2.00;1.40;;;;;;;-145.69;100.00;52396.84;5136663;27;20208;-83
2023/02/19 02:29:33;;;;;;;3.13;1.47;;;;;;;-145.69;100.00;52420.63;5135570;27;20192;-83
2023/02/19 02:32:05;;;;;;;1.90;1.23;;;;;;;-145.69;100.00;52444.38;5136342;27;20221;-82
2023/02/19 02:34:38;;;;;;;1.30;1.13;;;;;;;-145.69;100.00;52428.53;5136319;27;20192;-83
2023/02/19 02:37:07;;;;;;;3.47;1.27;;;;;;;-145.69;100.00;52404.78;5135783;27;20192;-83
2023/02/19 02:39:33;;;;;;;2.70;1.33;;;;;;;-145.69;100.00;52444.38;5136135;27;20202;-82
2023/02/19 02:45:33;;;;;;;1.20;1.00;;;;;;;-145.69;100.00;52412.69;5136294;27;20196;-83
2023/02/19 02:47:43;;;;;;;3.10;1.63;;;;;;;-145.69;100.00;52430.53;5135485;27;20283;-82
2023/02/19 02:50:15;;;;;;;3.03;1.20;;;;;;;-145.69;100.00;52430.53;5136016;27;20197;-82
2023/02/19 02:55:33;;;;;;;1.30;1.20;;;;;;;-145.69;100.00;52456.28;5135984;27;20192;-81
2023/02/19 02:58:00;;;;;;;4.47;1.67;;;;;;;-145.69;100.00;52416.66;5135621;27;20197;-81
2023/02/19 03:02:09;;;;;;;2.10;1.33;;;;;;;-145.69;100.00;52410.72;5135327;27;20197;-82
2023/02/19 03:03:19;;;;;;;1.87;1.50;;;;;;;-145.69;100.00;52404.78;5135265;27;20230;-82
2023/02/19 03:05:52;;;;;;;1.60;1.37;;;;;;;-145.69;100.00;52420.63;5135491;27;20288;-82
2023/02/19 03:08:23;;;;;;;2.70;1.50;;;;;;;-145.69;100.00;52408.75;5127033;27;20238;-81
2023/02/19 03:10:53;;;;;;;3.17;1.50;;;;;;;-145.69;100.00;52418.63;5115334;28;20359;-83
2023/02/19 03:21:43;;;;;;;1.73;1.30;;;;;;;-145.69;100.00;52472.13;5133111;27;20521;-83
2023/02/19 03:26:59;;;;;;;2.53;1.33;;;;;;;-145.69;100.00;52418.63;5103328;27;20196;-83
2023/02/19 03:29:29;;;;;;;2.33;1.47;;;;;;;-145.69;100.00;52420.63;5133496;27;20197;-83
2023/02/19 03:31:58;;;;;;;2.23;1.60;;;;;;;-145.69;100.00;52440.44;5134908;27;20197;-83
2023/02/19 03:34:32;;;;;;;2.27;1.67;;;;;;;-145.69;100.00;52420.63;5135070;27;20200;-84
2023/02/19 03:37:04;;;;;;;1.97;1.67;;;;;;;-145.69;100.00;52440.44;5134856;27;20204;-83
2023/02/19 03:39:31;;;;;;;2.00;1.50;;;;;;;-145.69;100.00;52464.19;5135021;27;20571;-82
2023/02/19 03:42:02;;;;;;;1.93;1.50;;;;;;;-145.69;100.00;52446.38;5134448;27;20609;-82
2023/02/19 03:44:37;;;;;;;3.33;1.60;;;;;;;-145.69;100.00;52420.63;5134848;27;20223;-82
2023/02/19 03:47:08;;;;;;;1.97;1.60;;;;;;;-145.69;100.00;52452.31;5133612;27;20615;-82
2023/02/19 03:49:43;;;;;;;2.23;1.60;;;;;;;-145.69;100.00;52462.22;5134835;27;20218;-82
2023/02/19 03:52:16;;;;;;;3.05;1.60;;;;;;;-145.69;100.00;52448.34;5133813;27;20441;-82
2023/02/19 03:54:51;;;;;;;1.73;1.30;;;;;;;-145.69;100.00;52462.22;5134303;27;20652;-81
2023/02/19 03:57:23;;;;;;;1.90;1.50;;;;;;;-145.69;100.00;52422.59;5134301;27;20674;-82
2023/02/19 03:59:55;;;;;;;1.83;1.30;;;;;;;-145.69;100.00;52384.97;5134341;27;20204;-82
2023/02/19 04:02:29;;;;;;;1.43;1.30;;;;;;;-145.69;100.00;52392.91;5134479;27;20212;-82
2023/02/19 04:05:02;;;;;;;1.03;0.93;;;;;;;-145.69;100.00;52436.47;5134247;27;20721;-82
2023/02/19 04:07:35;;;;;;;1.10;1.00;;;;;;;-145.69;100.00;52416.66;5133758;27;20671;-82
2023/02/19 04:10:05;;;;;;;2.77;1.00;;;;;;;-145.69;100.00;52408.75;5134489;27;20270;-82
2023/02/19 04:12:33;;;;;;;1.40;1.20;;;;;;;-145.69;100.00;52462.22;5134470;27;20228;-83
2023/02/19 04:15:05;;;;;;;2.50;1.30;;;;;;;-145.69;100.00;52426.56;5134345;27;20197;-83
2023/02/19 04:17:36;;;;;;;1.00;0.90;;;;;;;-145.69;100.00;52434.47;5134573;27;20280;-83
2023/02/19 04:20:08;;;;;;;2.10;1.30;;;;;;;-145.69;100.00;52464.19;5134379;27;20193;-84
2023/02/19 04:22:37;;;;;;;2.63;1.10;;;;;;;-145.69;100.00;52478.06;5134533;27;20583;-83
2023/02/19 04:25:04;;;;;;;1.30;1.20;;;;;;;-145.69;100.00;52424.59;5134187;27;20193;-83
2023/02/19 04:27:31;;;;;;;2.73;1.10;;;;;;;-145.69;100.00;52464.19;5134309;27;20567;-83
2023/02/19 04:29:58;;;;;;;1.20;1.00;;;;;;;-145.69;100.00;52424.59;5133801;27;20208;-83
2023/02/19 04:32:24;;;;;;;1.53;1.33;;;;;;;-145.69;100.00;52432.50;5134403;27;20225;-84
2023/02/19 04:34:51;;;;;;;1.60;1.17;;;;;;;-145.69;100.00;52416.66;5134489;27;20555;-84
2023/02/19 04:37:18;;;;;;;1.17;0.97;;;;;;;-145.69;100.00;52442.41;5134308;27;20197;-83
2023/02/19 04:39:45;;;;;;;1.20;1.10;;;;;;;-145.69;100.00;52472.13;5134062;27;20192;-84
2023/02/19 04:42:12;;;;;;;1.23;1.13;;;;;;;-145.69;100.00;52464.19;5133524;27;20196;-83
2023/02/19 04:44:38;;;;;;;1.97;1.20;;;;;;;-145.69;100.00;52424.59;5134060;28;20205;-83
2023/02/19 04:47:05;;;;;;;1.33;1.23;;;;;;;-145.69;100.00;52424.59;5132831;27;20196;-84
2023/02/19 04:49:31;;;;;;;1.93;1.00;;;;;;;-145.69;100.00;52428.53;5134153;28;20701;-84
2023/02/19 04:51:58;;;;;;;4.83;1.20;;;;;;;-145.69;100.00;52420.63;5134024;27;20200;-84
2023/02/19 04:54:26;;;;;;;2.17;1.33;;;;;;;-145.69;100.00;52440.44;5133963;27;20216;-83
2023/02/19 04:56:53;;;;;;;4.10;1.27;;;;;;;-145.69;100.00;52406.75;5133967;28;20249;-83
2023/02/19 04:59:19;;;;;;;1.33;1.10;;;;;;;-145.69;100.00;52440.44;5133113;28;20648;-83
2023/02/19 05:01:49;;;;;;;2.20;1.07;;;;;;;-145.69;100.00;52440.44;5134032;27;20197;-84
2023/02/19 05:04:15;;;;;;;1.83;1.20;;;;;;;-145.69;100.00;52448.34;5133725;27;20228;-85
2023/02/19 05:06:42;;;;;;;1.70;1.00;;;;;;;-145.69;100.00;52422.59;5116935;28;20617;-84
2023/02/19 05:09:08;;;;;;;3.57;1.30;;;;;;;-145.69;100.00;52460.22;5132357;27;20196;-84
2023/02/19 05:11:36;;;;;;;1.30;1.10;;;;;;;-145.69;100.00;52420.63;5134121;27;20228;-83
2023/02/19 05:14:03;;;;;;;1.73;1.20;;;;;;;-145.69;100.00;52432.50;5133826;28;20224;-83
2023/02/19 05:16:30;;;;;;;1.73;1.37;;;;;;;-145.69;100.00;52446.38;5133552;27;20220;-84
2023/02/19 05:18:56;;;;;;;1.90;1.03;;;;;;;-145.69;100.00;52432.50;5133803;27;20196;-83
2023/02/19 05:21:23;;;;;;;1.70;1.50;;;;;;;-145.69;100.00;52450.31;5133745;27;20210;-83
2023/02/19 05:23:49;;;;;;;3.20;1.40;;;;;;;-145.69;100.00;52432.50;5133574;28;20196;-83
2023/02/19 05:26:18;;;;;;;1.50;1.27;;;;;;;-145.69;100.00;52432.50;5133044;28;20651;-83
2023/02/19 05:28:48;;;;;;;1.60;1.43;;;;;;;-145.69;100.00;52452.31;5133236;27;20199;-83
2023/02/19 05:31:14;;;;;;;2.20;1.30;;;;;;;-145.69;100.00;52448.34;5133457;28;20192;-83
2023/02/19 05:33:41;;;;;;;1.53;1.40;;;;;;;-145.69;100.00;52440.44;5133630;28;20228;-83
2023/02/19 05:36:10;;;;;;;1.60;1.50;;;;;;;-145.69;100.00;52444.38;5133493;28;20212;-84
2023/02/19 05:38:37;;;;;;;3.00;1.30;;;;;;;-145.69;100.00;52444.38;5133966;27;20204;-84
2023/02/19 05:41:09;;;;;;;2.07;1.63;;;;;;;-145.69;100.00;52462.22;5132214;27;20705;-83
2023/02/19 05:43:36;;;;;;;1.90;1.53;;;;;;;-145.69;100.00;52480.03;5133361;27;20197;-84
2023/02/19 05:46:05;;;;;;;2.30;1.60;;;;;;;-145.69;100.00;52468.16;5133326;27;20200;-83
2023/02/19 05:48:31;;;;;;;1.63;1.30;;;;;;;-145.69;100.00;52444.38;5132028;27;20196;-84
2023/02/19 05:51:01;;;;;;;2.97;1.30;;;;;;;-145.69;100.00;52440.44;5133547;28;20196;-83
2023/02/19 05:53:28;;;;;;;2.77;1.40;;;;;;;-145.69;100.00;52428.53;5135453;27;20225;-84
2023/02/19 05:55:55;;;;;;;2.10;1.33;;;;;;;-145.69;100.00;52410.72;5137327;27;20201;-84
2023/02/19 05:58:21;;;;;;;1.30;1.20;;;;;;;-145.69;100.00;52476.06;5137319;27;20205;-84
2023/02/19 06:00:48;;;;;;;2.70;1.20;;;;;;;-145.69;100.00;52460.22;5136365;27;20200;-83
2023/02/19 06:03:15;;;;;;;1.40;1.13;;;;;;;-145.69;100.00;52450.31;5136735;27;20201;-83
2023/02/19 06:05:42;;;;;;;1.37;1.10;;;;;;;-145.69;100.00;52450.31;5136970;27;20231;-84
2023/02/19 06:08:09;;;;;;;1.40;1.20;;;;;;;-145.69;100.00;52444.38;5136983;27;20659;-83
2023/02/19 06:10:40;;;;;;;2.60;1.30;;;;;;;-145.69;100.00;52468.16;5136983;27;20207;-83
2023/02/19 06:13:07;;;;;;;1.67;1.20;;;;;;;-145.69;100.00;52464.19;5136874;27;20706;-83
2023/02/19 06:15:33;;;;;;;1.77;1.30;;;;;;;-145.69;100.00;52414.69;5136521;27;20196;-82
2023/02/19 06:18:00;;;;;;;1.73;1.20;;;;;;;-145.69;100.00;52444.38;5136725;27;20204;-83
2023/02/19 06:20:29;;;;;;;6.03;1.20;;;;;;;-145.69;100.00;52458.25;5136778;27;20201;-82
2023/02/19 06:22:55;;;;;;;4.17;1.47;;;;;;;-145.69;100.00;52456.28;5136592;27;20589;-82
2023/02/19 06:25:22;;;;;;;2.90;1.30;;;;;;;-145.69;100.00;52440.44;5136753;27;20200;-83
2023/02/19 06:27:48;;;;;;;1.93;1.30;;;;;;;-145.69;100.00;52484.00;5136514;27;20207;-84
2023/02/19 06:30:15;;;;;;;1.60;1.40;;;;;;;-145.69;100.00;52434.47;5135953;27;20663;-86
2023/02/19 06:32:41;;;;;;;2.03;1.37;;;;;;;-145.69;100.00;52440.44;5135431;27;20230;-84
2023/02/19 06:35:08;;;;;;;1.43;1.10;;;;;;;-145.69;100.00;52458.25;5136676;27;20201;-84
2023/02/19 06:37:35;;;;;;;1.90;1.40;;;;;;;-145.69;100.00;52468.16;5136237;27;20204;-83
2023/02/19 06:40:02;;;;;;;1.73;1.50;;;;;;;-145.69;100.00;52460.22;5135971;27;20681;-83
2023/02/19 06:42:31;;;;;;;1.83;1.47;;;;;;;-145.69;100.00;52480.03;5136234;27;20193;-83
2023/02/19 06:44:58;;;;;;;2.13;1.40;;;;;;;-145.69;100.00;52426.56;5136057;27;20276;-82
2023/02/19 06:47:30;;;;;;;1.70;1.60;;;;;;;-145.69;100.00;52430.53;5136157;27;20215;-83
2023/02/19 06:49:56;;;;;;;3.40;1.50;;;;;;;-145.69;100.00;52438.44;5135563;27;20197;-82
2023/02/19 06:52:23;;;;;;;4.10;1.60;;;;;;;-145.69;100.00;52464.19;5135584;27;20200;-83
2023/02/19 06:54:51;;;;;;;2.67;1.75;;;;;;;-145.69;100.00;52456.28;5134976;27;20454;-83
2023/02/19 06:57:17;;;;;;;1.73;1.30;;;;;;;-145.69;100.00;52438.44;5135893;27;20200;-83
2023/02/19 06:59:44;;;;;;;2.50;1.73;;;;;;;-145.69;100.00;52480.03;5134379;27;20203;-83
2023/02/19 07:02:12;;;;;;;1.27;1.10;;;;;;;-145.69;100.00;52484.00;5135625;27;20647;-83
2023/02/19 07:04:39;;;;;;;4.40;1.50;;;;;;;-145.69;100.00;52478.06;5134319;27;20576;-82
2023/02/19 07:07:05;;;;;;;3.43;1.30;;;;;;;-145.69;100.00;52484.00;5135786;27;20250;-82
2023/02/19 07:09:32;;;;;;;2.17;1.60;;;;;;;-145.69;100.00;52444.38;5134932;27;20209;-83
2023/02/19 07:12:00;;;;;;;1.23;1.13;;;;;;;-145.69;100.00;52440.44;5117116;27;20640;-82
2023/02/19 07:14:26;;;;;;;3.37;1.47;;;;;;;-145.69;100.00;52484.00;5115384;28;20251;-84
2023/02/19 07:16:53;;;;;;;4.33;1.50;;;;;;;-145.69;100.00;52472.13;5120046;27;20192;-83
2023/02/19 07:19:19;;;;;;;1.60;1.30;;;;;;;-145.69;100.00;52452.31;5135558;27;20681;-83
2023/02/19 07:21:46;;;;;;;1.30;1.20;;;;;;;-145.69;100.00;52480.03;5135378;27;20197;-83
2023/02/19 07:24:12;;;;;;;1.80;1.27;;;;;;;-145.69;100.00;52476.06;5135464;27;20201;-84
2023/02/19 07:26:39;;;;;;;1.77;1.30;;;;;;;-145.69;100.00;52491.91;5135609;27;20554;-84
2023/02/19 07:29:07;;;;;;;1.53;0.90;;;;;;;-145.69;100.00;52468.16;5135651;27;20204;-83
2023/02/19 07:31:33;;;;;;;0.90;0.90;;;;;;;-145.69;100.00;52476.06;5135126;27;20254;-84
2023/02/19 07:34:00;;;;;;;1.40;0.90;;;;;;;-145.69;100.00;52485.97;5135646;27;20683;-83
2023/02/19 07:36:27;;;;;;;1.10;1.00;;;;;;;-145.69;100.00;52476.06;5134582;27;20452;-84
2023/02/19 07:38:55;;;;;;;0.90;0.80;;;;;;;-145.69;100.00;52487.97;5135274;27;20200;-84
2023/02/19 07:41:21;;;;;;;0.87;0.87;;;;;;;-145.69;100.00;52460.22;5135125;27;20648;-86
2023/02/19 07:43:48;;;;;;;0.80;0.80;;;;;;;-145.69;100.00;52478.06;5135716;27;20208;-85
2023/02/19 07:46:16;;;;;;;0.70;0.70;;;;;;;-145.69;100.00;52468.16;5135602;27;20204;-85
2023/02/19 07:48:43;;;;;;;1.13;0.90;;;;;;;-145.69;100.00;52493.91;5135821;27;20204;-86
2023/02/19 07:51:11;;;;;;;1.93;1.00;;;;;;;-145.69;100.00;52464.19;5135735;27;20199;-85
2023/02/19 07:53:38;;;;;;;1.30;1.10;;;;;;;-145.69;100.00;52507.75;5135036;27;20687;-85
2023/02/19 07:56:07;;;;;;;1.10;0.83;;;;;;;-145.69;100.00;52456.28;5135622;27;20205;-85
2023/02/19 07:58:34;;;;;;;0.83;0.70;;;;;;;-145.69;100.00;52456.28;5135192;27;20204;-85
2023/02/19 08:01:08;;;;;;;2.50;1.07;;;;;;;-145.69;100.00;52501.81;5134967;27;20193;-85
2023/02/19 08:03:35;;;;;;;1.57;1.20;;;;;;;-145.69;100.00;52497.84;5134688;27;20247;-86
2023/02/19 08:06:01;;;;;;;4.00;1.40;;;;;;;-145.69;100.00;52466.16;5135171;27;20201;-85
2023/02/19 08:08:28;;;;;;;1.97;1.60;;;;;;;-145.69;100.00;52503.81;5134586;27;20199;-85
2023/02/19 08:13:39;;;;;;;2.13;1.30;;;;;;;-145.69;100.00;52460.22;5135232;27;20223;-85
2023/02/19 08:16:12;;;;;;;1.33;1.00;;;;;;;-145.69;100.00;52472.13;5134532;27;20197;-86
2023/02/19 08:18:40;;;;;;;0.83;0.80;;;;;;;-145.69;100.00;52515.69;5134805;27;20643;-85
2023/02/19 08:21:06;;;;;;;1.20;1.10;;;;;;;-145.69;100.00;52468.16;5135124;27;20204;-86
2023/02/19 08:23:33;;;;;;;1.37;1.07;;;;;;;-145.69;100.00;52464.19;5135173;27;20205;-86
2023/02/19 08:26:01;;;;;;;0.80;0.80;;;;;;;-145.69;100.00;52470.13;5134826;27;20253;-86
2023/02/19 08:28:28;;;;;;;1.40;1.30;;;;;;;-145.69;100.00;52472.13;5134843;27;20204;-86
2023/02/19 08:30:59;;;;;;;1.10;1.00;;;;;;;-145.69;100.00;52468.16;5134680;27;20204;-87
2023/02/19 08:33:26;;;;;;;1.77;0.90;;;;;;;-145.69;100.00;52450.31;5135164;27;20521;-86
2023/02/19 08:35:54;;;;;;;0.73;0.63;;;;;;;-145.69;100.00;52487.97;5134662;27;20228;-85
2023/02/19 08:38:20;;;;;;;0.90;0.90;;;;;;;-145.69;100.00;52487.97;5133862;27;20189;-84
2023/02/19 08:40:47;;;;;;;1.13;0.80;;;;;;;-145.69;100.00;52493.91;5134109;27;20597;-81
2023/02/19 08:43:15;;;;;;;0.60;0.60;;;;;;;-145.69;100.00;52487.97;5133972;27;20201;-82
2023/02/19 08:45:43;;;;;;;0.80;0.70;;;;;;;-145.69;100.00;52476.06;5133759;28;20201;-81
2023/02/19 08:48:11;;;;;;;0.60;0.60;;;;;;;-145.69;100.00;52503.81;5133558;27;20624;-82
2023/02/19 08:50:38;;;;;;;0.90;0.80;;;;;;;-145.69;100.00;52501.81;5133577;28;20196;-81
2023/02/19 08:53:06;;;;;;;2.07;0.80;;;;;;;-145.69;100.00;52480.03;5133748;27;20204;-83
2023/02/19 08:55:33;;;;;;;1.43;0.83;;;;;;;-145.69;100.00;52487.97;5133658;27;20229;-81
2023/02/19 08:58:01;;;;;;;2.43;0.70;;;;;;;-145.69;100.00;52452.31;5133768;27;20193;-82
2023/02/19 09:00:27;;;;;;;1.40;0.63;;;;;;;-145.69;100.00;52497.84;5133079;27;20193;-81
2023/02/19 09:02:53;;;;;;;0.73;0.60;;;;;;;-145.69;100.00;52487.97;5133374;28;20550;-81
2023/02/19 09:05:20;;;;;;;0.60;0.60;;;;;;;-145.69;100.00;52472.13;5133557;28;20236;-82
2023/02/19 09:07:46;;;;;;;0.60;0.60;;;;;;;-145.69;100.00;52476.06;5132246;28;20275;-82
2023/02/19 09:10:14;;;;;;;1.87;1.30;;;;;;;-145.69;100.00;52476.06;5131692;27;20192;-81
2023/02/19 09:12:41;;;;;;;2.67;1.63;;;;;;;-145.69;100.00;52472.13;5132353;28;20200;-82
2023/02/19 09:15:09;;;;;;;0.80;0.70;;;;;;;-145.69;100.00;52476.06;5133356;28;20216;-81
2023/02/19 09:17:36;;;;;;;2.67;1.07;;;;;;;-145.69;100.00;52476.06;5133706;27;20192;-81
2023/02/19 09:20:03;;;;;;;1.67;1.20;;;;;;;-145.69;100.00;52519.63;5133647;28;20674;-82
2023/02/19 09:22:30;;;;;;;1.00;1.00;;;;;;;-145.69;100.00;52484.00;5133616;27;20246;-82
2023/02/19 09:24:56;;;;;;;1.63;1.30;;;;;;;-145.69;100.00;52491.91;5133648;28;20243;-82
2023/02/19 09:27:24;;;;;;;1.10;1.00;;;;;;;-145.69;100.00;52438.44;5134113;27;20211;-82
2023/02/19 09:29:51;;;;;;;1.07;0.97;;;;;;;-145.69;100.00;52484.00;5137317;27;20193;-81
2023/02/19 09:32:17;;;;;;;1.27;1.03;;;;;;;-145.69;100.00;52472.13;5137398;27;20196;-81
2023/02/19 09:34:44;;;;;;;1.20;0.90;;;;;;;-145.69;100.00;52460.22;5137334;27;20224;-82
2023/02/19 09:37:10;;;;;;;0.90;0.90;;;;;;;-145.69;100.00;52489.94;5137420;27;20251;-82
2023/02/19 09:39:37;;;;;;;0.77;0.70;;;;;;;-145.69;100.00;52472.13;5137361;27;20216;-82
2023/02/19 09:42:12;;;;;;;1.37;0.77;;;;;;;-145.69;100.00;52487.97;5137412;27;20224;-82
2023/02/19 09:44:43;;;;;;;4.17;0.90;;;;;;;-145.69;100.00;52464.19;5137144;27;20204;-82
2023/02/19 09:47:17;;;;;;;0.80;0.80;;;;;;;-145.69;100.00;52487.97;5137078;27;20667;-82
2023/02/19 09:49:50;;;;;;;1.03;0.80;;;;;;;-145.69;100.00;52472.13;5136810;27;20200;-82
2023/02/19 09:52:23;;;;;;;1.90;0.90;;;;;;;-145.69;100.00;52474.09;5137131;27;20292;-82
2023/02/19 09:54:50;;;;;;;2.40;1.30;;;;;;;-145.69;100.00;52456.28;5136538;27;20232;-82
2023/02/19 09:57:20;;;;;;;1.27;0.93;;;;;;;-145.69;100.00;52484.00;5136975;27;20197;-82
2023/02/19 09:59:50;;;;;;;1.00;0.90;;;;;;;-145.69;100.00;52487.97;5137031;27;20189;-82
2023/02/19 10:02:19;;;;;;;2.10;1.00;;;;;;;-145.69;100.00;52472.13;5136804;27;20201;-82
2023/02/19 10:04:46;;;;;;;3.90;1.07;;;;;;;-145.69;100.00;52485.97;5136632;27;20236;-82
2023/02/19 10:07:15;;;;;;;2.50;1.30;;;;;;;-145.69;100.00;52464.19;5136609;27;20201;-81
2023/02/19 10:09:42;;;;;;;3.17;1.67;;;;;;;-145.69;100.00;52472.13;5135963;27;20200;-82
2023/02/19 10:12:15;;;;;;;2.27;1.73;;;;;;;-145.69;100.00;52466.16;5136889;27;20204;-82
2023/02/19 10:14:44;;;;;;;1.50;1.10;;;;;;;-145.69;100.00;52495.88;5136330;27;20256;-80
2023/02/19 10:17:21;;;;;;;1.73;1.23;;;;;;;-145.69;100.00;52464.19;5136554;27;20197;-80
2023/02/19 10:19:48;;;;;;;1.80;1.10;;;;;;;-145.69;100.00;52468.16;5136532;27;20200;-81
2023/02/19 10:22:17;;;;;;;2.00;1.10;;;;;;;-145.69;100.00;52460.22;5136564;27;20208;-82
2023/02/19 10:24:48;;;;;;;1.47;1.10;;;;;;;-145.69;100.00;52440.44;5136792;27;20227;-86
2023/02/19 10:27:15;;;;;;;2.87;1.13;;;;;;;-145.69;100.00;52438.44;5136878;27;20207;-82
2023/02/19 10:29:43;;;;;;;1.00;0.93;;;;;;;-145.69;100.00;52448.34;5135863;27;20201;-82
2023/02/19 10:32:17;;;;;;;1.20;1.10;;;;;;;-145.69;100.00;52460.22;5136164;27;20197;-79
2023/02/19 10:34:44;;;;;;;1.77;1.57;;;;;;;-145.69;100.00;52462.22;5136459;27;20258;-78
2023/02/19 10:37:15;;;;;;;7.37;2.60;;;;;;;-145.69;100.00;52464.19;5135785;27;20647;-79
2023/02/19 10:39:45;;;;;;;2.33;1.50;;;;;;;-145.69;100.00;52503.81;5134202;27;20220;-79
2023/02/19 10:42:19;;;;;;;3.00;2.00;;;;;;;-145.69;100.00;52456.28;5136494;27;20201;-79
2023/02/19 10:44:49;;;;;;;2.00;1.10;;;;;;;-145.69;100.00;52460.22;5135827;27;20200;-80
2023/02/19 10:47:21;;;;;;;1.93;1.20;;;;;;;-145.69;100.00;52476.06;5136004;27;20201;-80
2023/02/19 10:49:50;;;;;;;1.60;1.20;;;;;;;-145.69;100.00;52497.84;5136121;27;20193;-80
2023/02/19 10:52:22;;;;;;;1.67;1.20;;;;;;;-145.69;100.00;52462.22;5135817;27;20203;-80
2023/02/19 10:54:52;;;;;;;2.20;1.00;;;;;;;-145.69;100.00;52436.47;5135523;27;20245;-80
2023/02/19 10:57:29;;;;;;;1.00;0.97;;;;;;;-145.69;100.00;52493.91;5136091;27;20201;-81
2023/02/19 10:59:57;;;;;;;1.43;1.00;;;;;;;-145.69;100.00;52450.31;5135227;27;20192;-80
2023/02/19 11:02:26;;;;;;;1.53;1.20;;;;;;;-145.69;100.00;52484.00;5117251;27;20197;-81
2023/02/19 11:05:18;;;;;;;1.43;1.00;;;;;;;-145.69;100.00;52458.25;5129118;27;20591;-81
2023/02/19 11:07:49;;;;;;;1.70;1.10;;;;;;;-145.69;100.00;52436.47;5142081;27;20200;-81
2023/02/19 11:13:06;;;;;;;2.13;1.00;;;;;;;-145.69;100.00;52460.22;5133714;27;20244;-81
2023/02/19 11:15:34;;;;;;;1.23;1.00;;;;;;;-145.69;100.00;52462.22;5134947;27;20224;-79
2023/02/19 11:18:08;;;;;;;1.10;1.00;;;;;;;-145.69;100.00;52466.16;5135096;27;20197;-83
2023/02/19 11:20:34;;;;;;;1.10;0.90;;;;;;;-145.69;100.00;52450.31;5135293;27;20200;-78
2023/02/19 11:23:10;;;;;;;4.03;1.27;;;;;;;-145.69;100.00;52448.34;5135299;27;20234;-78
2023/02/19 11:25:45;;;;;;;1.10;1.10;;;;;;;-145.69;100.00;52470.13;5135252;27;20192;-79
2023/02/19 11:28:23;;;;;;;1.83;1.30;;;;;;;-145.69;100.00;52432.50;5135956;27;20195;-80
2023/02/19 11:30:50;;;;;;;2.60;1.27;;;;;;;-145.69;100.00;52444.38;5134403;27;20774;-82
2023/02/19 11:33:26;;;;;;;2.50;1.13;;;;;;;-145.69;100.00;52448.34;5135664;27;20212;-81
2023/02/19 11:35:57;;;;;;;1.27;0.90;;;;;;;-145.69;100.00;52499.84;5133801;27;20234;-83
2023/02/19 11:38:24;;;;;;;2.10;1.07;;;;;;;-145.69;100.00;52474.09;5144302;27;20228;-83
2023/02/19 11:40:55;;;;;;;3.00;1.20;;;;;;;-145.69;100.00;52452.31;5155802;27;20196;-84
2023/02/19 11:43:44;;;;;;;2.13;1.33;;;;;;;-145.69;100.00;52484.00;5156542;27;20195;-83